Vivien A — TCYC4 — position and weather

sailwx.info

Track history (hours):
 
Tides and Currents Weather Stations Pressure Air Temp Water Temp Dewpoint Dewpoint Depression Visibility Wind Speed Wind Dir Waves Ship Positions

Vivien A

Last reported at 2017-May-29 22:11 UTC. Time now 2017-May-30 01:20 UTC.
Position N 35°54' W 005°30'.

Length 210 m; draft 11.9 m.

Type: Ship (hazmat cat B). MMSI: 271040635.

Date/timePositionNaut miles runAvg speedWind from/ knotsBaromVisibWave heightAir tempDewpointWater temp
2017-May-29 22:11N 35°54' W 005°30'2 1.4
2017-May-29 20:24N 35°54' W 005°33'1 1.7
2017-May-29 19:59N 35°54' W 005°34'5 1.3
2017-May-29 15:44N 35°54' W 005°40'  
2017-May-26 03:29N 35°58' W 005°39'611.9
2017-May-26 02:57N 35°59' W 005°32'612.3
2017-May-26 02:29N 36°01' W 005°25'510.7
2017-May-26 02:01N 36°06' W 005°25'1 2.7
2017-May-26 01:30N 36°08' W 005°25'0 0.0
2017-May-26 01:00N 36°08' W 005°25'0 0.0
2017-May-26 00:30N 36°08' W 005°25'0 0.0
2017-May-26 00:00N 36°08' W 005°25'0 0.0
2017-May-25 23:30N 36°08' W 005°25'0 0.0
2017-May-25 23:00N 36°08' W 005°25'0 0.0
2017-May-25 21:27N 36°08' W 005°25'0 0.0
2017-May-25 21:00N 36°08' W 005°25'0 0.0
2017-May-25 20:30N 36°08' W 005°25'0 0.0
2017-May-25 20:00N 36°08' W 005°25'0 0.0
2017-May-25 19:27N 36°08' W 005°25'0 0.0
2017-May-25 19:00N 36°08' W 005°25'0 0.0
2017-May-25 18:30N 36°08' W 005°25'0 0.0
2017-May-25 17:57N 36°08' W 005°25'0 0.0
2017-May-25 17:24N 36°08' W 005°25'0 0.0
2017-May-25 15:25N 36°08' W 005°25'5 3.8
2017-May-25 14:00N 36°03' W 005°22'0 0.4
2017-May-25 13:30N 36°03' W 005°22'0 0.1
2017-May-25 13:00N 36°03' W 005°22'0 0.2
2017-May-25 12:30N 36°03' W 005°22'0 0.4
2017-May-25 12:00N 36°04' W 005°22'0 0.6
2017-May-25 11:30N 36°04' W 005°21'0 0.9
2017-May-25 11:00N 36°04' W 005°21'1 1.0
2017-May-25 10:30N 36°04' W 005°20'1 1.2
2017-May-25 10:00N 36°04' W 005°20'0 0.9
2017-May-25 09:30N 36°04' W 005°19'1 1.0
2017-May-25 09:00N 36°05' W 005°19'1 1.4
2017-May-25 08:30N 36°05' W 005°18'1 1.5
2017-May-25 08:00N 36°05' W 005°17'0 0.9
2017-May-25 07:30N 36°05' W 005°16'0 0.7
2017-May-25 07:00N 36°05' W 005°16'0 0.4
2017-May-25 06:30N 36°05' W 005°16'0 0.2
2017-May-25 06:00N 36°05' W 005°15'0 0.6
2017-May-25 05:30N 36°05' W 005°15'0 0.8
2017-May-25 05:00N 36°06' W 005°15'0 0.9
2017-May-25 04:30N 36°06' W 005°15'0 0.8
2017-May-25 04:00N 36°06' W 005°15'1 1.7
2017-May-25 03:30N 36°07' W 005°16'1 2.0
2017-May-25 03:00N 36°06' W 005°15'612.0
2017-May-25 02:29N 36°08' W 005°08'20610.4
2017-May-24 06:42N 37°13' W 001°04'315.4
2017-May-24 06:28N 37°15' W 001°01'714.4
2017-May-24 06:00N 37°19' W 000°55'714.2
2017-May-24 05:30N 37°24' W 000°48'714.4
2017-May-24 05:00N 37°29' W 000°41'714.3
2017-May-24 04:30N 37°34' W 000°34'714.2
2017-May-24 04:00N 37°39' W 000°29'714.1
2017-May-24 03:30N 37°45' W 000°24'1513.8
2017-May-24 02:26N 37°58' W 000°14'613.8
2017-May-24 02:00N 38°02' W 000°10'1414.1
2017-May-24 01:02N 38°14' W 000°00'014.2
2017-May-24 01:00N 38°15' W 000°00'714.4
2017-May-24 00:30N 38°21' E 000°05'714.6
2017-May-24 00:00N 38°27' E 000°10'914.4
2017-May-23 23:23N 38°34' E 000°16'84 7.4
2017-May-23 11:54N 39°58' E 000°02'0 0.0
2017-May-23 11:27N 39°58' E 000°02'0 0.0
2017-May-23 11:00N 39°58' E 000°02'0 0.0
2017-May-23 02:06N 39°58' E 000°02'0 0.0
2017-May-23 02:00N 39°58' E 000°02'0 0.0
2017-May-23 00:12N 39°58' E 000°02'0 0.0
2017-May-23 00:00N 39°58' E 000°02'0 0.0
2017-May-22 20:42N 39°58' E 000°02'0 0.0
2017-May-22 18:54N 39°58' E 000°02'0 0.0
2017-May-22 18:24N 39°58' E 000°02'0 0.0
2017-May-22 18:00N 39°58' E 000°02'0 0.0
2017-May-22 17:24N 39°58' E 000°02'0 0.0
2017-May-22 16:48N 39°58' E 000°02'0 0.0
2017-May-22 16:30N 39°58' E 000°02'0 0.0
2017-May-22 15:57N 39°58' E 000°02'0 0.0
2017-May-22 15:30N 39°58' E 000°02'0 0.0
2017-May-22 14:54N 39°58' E 000°02'0 0.0
2017-May-22 14:30N 39°58' E 000°02'0 0.0
2017-May-22 10:30N 39°58' E 000°02'8 0.7
2017-May-21 22:56N 39°56' E 000°11'1 1.0
2017-May-21 22:22N 39°56' E 000°11'3612.7
2017-May-21 19:32N 39°26' W 000°16'212.8
2017-May-21 19:24N 39°26' W 000°18'1 3.1
2017-May-21 18:58N 39°27' W 000°19'0 0.0
2017-May-21 18:28N 39°27' W 000°19'0 0.0
2017-May-21 17:58N 39°27' W 000°19'0 0.0
2017-May-21 17:28N 39°27' W 000°19'0 0.0
2017-May-21 16:58N 39°27' W 000°19'0 0.0
2017-May-21 16:28N 39°27' W 000°19'0 0.0
2017-May-21 15:58N 39°27' W 000°19'0 0.0
2017-May-21 15:28N 39°27' W 000°19'0 0.0
2017-May-21 14:58N 39°27' W 000°19'0 0.0
2017-May-21 14:28N 39°27' W 000°19'0 0.0
2017-May-21 13:28N 39°27' W 000°19'0 0.0
2017-May-21 12:58N 39°27' W 000°19'0 0.0
2017-May-21 12:28N 39°27' W 000°19'0 0.0
2017-May-21 11:58N 39°27' W 000°19'0 0.0
2017-May-21 11:28N 39°27' W 000°19'0 0.0
2017-May-21 10:58N 39°27' W 000°19'0 0.0
2017-May-21 10:25N 39°27' W 000°19'0 0.0
2017-May-21 09:58N 39°27' W 000°19'0 0.0
2017-May-21 09:28N 39°27' W 000°19'0 0.0
2017-May-21 08:58N 39°27' W 000°19'0 0.0
2017-May-21 08:28N 39°27' W 000°19'0 0.0
2017-May-21 07:58N 39°27' W 000°19'0 0.0
2017-May-21 07:28N 39°27' W 000°19'0 0.0
2017-May-21 06:55N 39°27' W 000°19'0 0.0
2017-May-21 06:28N 39°27' W 000°19'0 0.0
2017-May-21 05:58N 39°27' W 000°19'0 0.0
2017-May-21 05:28N 39°27' W 000°19'0 0.0
2017-May-21 04:58N 39°27' W 000°19'0 0.0
2017-May-21 04:28N 39°27' W 000°19'0 0.0
2017-May-21 03:58N 39°27' W 000°19'0 0.0
2017-May-21 03:28N 39°27' W 000°19'0 0.0
2017-May-21 02:58N 39°27' W 000°19'0 0.0
2017-May-21 02:28N 39°27' W 000°19'0 0.0
2017-May-21 01:58N 39°27' W 000°19'0 0.0
2017-May-21 01:28N 39°27' W 000°19'0 0.0
2017-May-21 00:58N 39°27' W 000°19'0 0.0
2017-May-21 00:28N 39°27' W 000°19'0 0.0
2017-May-20 23:58N 39°27' W 000°19'0 0.0
2017-May-20 23:28N 39°27' W 000°19'0 0.0
2017-May-20 22:58N 39°27' W 000°19'0 0.0
2017-May-20 22:28N 39°27' W 000°19'0 0.0
2017-May-20 21:58N 39°27' W 000°19'0 0.0
2017-May-20 21:28N 39°27' W 000°19'0 0.0
2017-May-20 20:58N 39°27' W 000°19'0 0.0
2017-May-20 20:28N 39°27' W 000°19'0 0.0
2017-May-20 19:58N 39°27' W 000°19'0 0.0
2017-May-20 19:28N 39°27' W 000°19'0 0.0
2017-May-20 18:58N 39°27' W 000°19'0 0.0
2017-May-20 18:28N 39°27' W 000°19'0 0.0
2017-May-20 17:58N 39°27' W 000°19'0 0.1
2017-May-20 17:30N 39°27' W 000°19'3 5.8
2017-May-20 17:00N 39°26' W 000°15'1 1.2
2017-May-20 16:30N 39°26' W 000°15'0 0.3
2017-May-20 16:00N 39°26' W 000°15'4 7.1
2017-May-20 15:30N 39°28' W 000°11'713.5
2017-May-20 15:00N 39°32' W 000°04'3813.5
2017-May-20 12:11N 39°59' E 000°30'313.8
2017-May-20 12:00N 40°01' E 000°33'4813.9
2017-May-20 08:35N 40°42' E 001°06'25 6.7
2017-May-20 04:54N 41°06' E 001°13'0 0.0
2017-May-20 04:24N 41°06' E 001°13'0 0.0
2017-May-20 01:33N 41°06' E 001°13'0 0.1
2017-May-20 01:30N 41°06' E 001°13'0 0.0
2017-May-20 01:00N 41°06' E 001°13'0 0.0
2017-May-20 00:30N 41°06' E 001°13'0 0.0
2017-May-19 23:51N 41°06' E 001°13'0 0.3
2017-May-19 23:30N 41°06' E 001°13'2 4.0
2017-May-19 23:00N 41°04' E 001°12'  
Track history (hours):
 
Tides and Currents Weather Stations Pressure Air Temp Water Temp Dewpoint Dewpoint Depression Visibility Wind Speed Wind Dir Waves Ship Positions

Vivien A

Last reported at 2017-May-29 22:11 UTC. Time now 2017-May-30 01:20 UTC.
Position N 35°54' W 005°30'.

Length 210 m; draft 11.9 m.

Type: Ship (hazmat cat B). MMSI: 271040635.

Date/timePositionNaut miles runAvg speedWind from/ knotsBaromVisibWave heightAir tempDewpointWater temp
2017-May-29 22:11N 35°54' W 005°30'2 1.4
2017-May-29 20:24N 35°54' W 005°33'1 1.7
2017-May-29 19:59N 35°54' W 005°34'5 1.3
2017-May-29 15:44N 35°54' W 005°40'  
2017-May-26 03:29N 35°58' W 005°39'611.9
2017-May-26 02:57N 35°59' W 005°32'612.3
2017-May-26 02:29N 36°01' W 005°25'510.7
2017-May-26 02:01N 36°06' W 005°25'1 2.7
2017-May-26 01:30N 36°08' W 005°25'0 0.0
2017-May-26 01:00N 36°08' W 005°25'0 0.0
2017-May-26 00:30N 36°08' W 005°25'0 0.0
2017-May-26 00:00N 36°08' W 005°25'0 0.0
2017-May-25 23:30N 36°08' W 005°25'0 0.0
2017-May-25 23:00N 36°08' W 005°25'0 0.0
2017-May-25 21:27N 36°08' W 005°25'0 0.0
2017-May-25 21:00N 36°08' W 005°25'0 0.0
2017-May-25 20:30N 36°08' W 005°25'0 0.0
2017-May-25 20:00N 36°08' W 005°25'0 0.0
2017-May-25 19:27N 36°08' W 005°25'0 0.0
2017-May-25 19:00N 36°08' W 005°25'0 0.0
2017-May-25 18:30N 36°08' W 005°25'0 0.0
2017-May-25 17:57N 36°08' W 005°25'0 0.0
2017-May-25 17:24N 36°08' W 005°25'0 0.0
2017-May-25 15:25N 36°08' W 005°25'5 3.8
2017-May-25 14:00N 36°03' W 005°22'0 0.4
2017-May-25 13:30N 36°03' W 005°22'0 0.1
2017-May-25 13:00N 36°03' W 005°22'0 0.2
2017-May-25 12:30N 36°03' W 005°22'0 0.4
2017-May-25 12:00N 36°04' W 005°22'0 0.6
2017-May-25 11:30N 36°04' W 005°21'0 0.9
2017-May-25 11:00N 36°04' W 005°21'1 1.0
2017-May-25 10:30N 36°04' W 005°20'1 1.2
2017-May-25 10:00N 36°04' W 005°20'0 0.9
2017-May-25 09:30N 36°04' W 005°19'1 1.0
2017-May-25 09:00N 36°05' W 005°19'1 1.4
2017-May-25 08:30N 36°05' W 005°18'1 1.5
2017-May-25 08:00N 36°05' W 005°17'0 0.9
2017-May-25 07:30N 36°05' W 005°16'0 0.7
2017-May-25 07:00N 36°05' W 005°16'0 0.4
2017-May-25 06:30N 36°05' W 005°16'0 0.2
2017-May-25 06:00N 36°05' W 005°15'0 0.6
2017-May-25 05:30N 36°05' W 005°15'0 0.8
2017-May-25 05:00N 36°06' W 005°15'0 0.9
2017-May-25 04:30N 36°06' W 005°15'0 0.8
2017-May-25 04:00N 36°06' W 005°15'1 1.7
2017-May-25 03:30N 36°07' W 005°16'1 2.0
2017-May-25 03:00N 36°06' W 005°15'612.0
2017-May-25 02:29N 36°08' W 005°08'20610.4
2017-May-24 06:42N 37°13' W 001°04'315.4
2017-May-24 06:28N 37°15' W 001°01'714.4
2017-May-24 06:00N 37°19' W 000°55'714.2
2017-May-24 05:30N 37°24' W 000°48'714.4
2017-May-24 05:00N 37°29' W 000°41'714.3
2017-May-24 04:30N 37°34' W 000°34'714.2
2017-May-24 04:00N 37°39' W 000°29'714.1
2017-May-24 03:30N 37°45' W 000°24'1513.8
2017-May-24 02:26N 37°58' W 000°14'613.8
2017-May-24 02:00N 38°02' W 000°10'1414.1
2017-May-24 01:02N 38°14' W 000°00'014.2
2017-May-24 01:00N 38°15' W 000°00'714.4
2017-May-24 00:30N 38°21' E 000°05'714.6
2017-May-24 00:00N 38°27' E 000°10'914.4
2017-May-23 23:23N 38°34' E 000°16'84 7.4
2017-May-23 11:54N 39°58' E 000°02'0 0.0
2017-May-23 11:27N 39°58' E 000°02'0 0.0
2017-May-23 11:00N 39°58' E 000°02'0 0.0
2017-May-23 02:06N 39°58' E 000°02'0 0.0
2017-May-23 02:00N 39°58' E 000°02'0 0.0
2017-May-23 00:12N 39°58' E 000°02'0 0.0
2017-May-23 00:00N 39°58' E 000°02'0 0.0
2017-May-22 20:42N 39°58' E 000°02'0 0.0
2017-May-22 18:54N 39°58' E 000°02'0 0.0
2017-May-22 18:24N 39°58' E 000°02'0 0.0
2017-May-22 18:00N 39°58' E 000°02'0 0.0
2017-May-22 17:24N 39°58' E 000°02'0 0.0
2017-May-22 16:48N 39°58' E 000°02'0 0.0
2017-May-22 16:30N 39°58' E 000°02'0 0.0
2017-May-22 15:57N 39°58' E 000°02'0 0.0
2017-May-22 15:30N 39°58' E 000°02'0 0.0
2017-May-22 14:54N 39°58' E 000°02'0 0.0
2017-May-22 14:30N 39°58' E 000°02'0 0.0
2017-May-22 10:30N 39°58' E 000°02'8 0.7
2017-May-21 22:56N 39°56' E 000°11'1 1.0
2017-May-21 22:22N 39°56' E 000°11'3612.7
2017-May-21 19:32N 39°26' W 000°16'212.8
2017-May-21 19:24N 39°26' W 000°18'1 3.1
2017-May-21 18:58N 39°27' W 000°19'0 0.0
2017-May-21 18:28N 39°27' W 000°19'0 0.0
2017-May-21 17:58N 39°27' W 000°19'0 0.0
2017-May-21 17:28N 39°27' W 000°19'0 0.0
2017-May-21 16:58N 39°27' W 000°19'0 0.0
2017-May-21 16:28N 39°27' W 000°19'0 0.0
2017-May-21 15:58N 39°27' W 000°19'0 0.0
2017-May-21 15:28N 39°27' W 000°19'0 0.0
2017-May-21 14:58N 39°27' W 000°19'0 0.0
2017-May-21 14:28N 39°27' W 000°19'0 0.0
2017-May-21 13:28N 39°27' W 000°19'0 0.0
2017-May-21 12:58N 39°27' W 000°19'0 0.0
2017-May-21 12:28N 39°27' W 000°19'0 0.0
2017-May-21 11:58N 39°27' W 000°19'0 0.0
2017-May-21 11:28N 39°27' W 000°19'0 0.0
2017-May-21 10:58N 39°27' W 000°19'0 0.0
2017-May-21 10:25N 39°27' W 000°19'0 0.0
2017-May-21 09:58N 39°27' W 000°19'0 0.0
2017-May-21 09:28N 39°27' W 000°19'0 0.0
2017-May-21 08:58N 39°27' W 000°19'0 0.0
2017-May-21 08:28N 39°27' W 000°19'0 0.0
2017-May-21 07:58N 39°27' W 000°19'0 0.0
2017-May-21 07:28N 39°27' W 000°19'0 0.0
2017-May-21 06:55N 39°27' W 000°19'0 0.0
2017-May-21 06:28N 39°27' W 000°19'0 0.0
2017-May-21 05:58N 39°27' W 000°19'0 0.0
2017-May-21 05:28N 39°27' W 000°19'0 0.0
2017-May-21 04:58N 39°27' W 000°19'0 0.0
2017-May-21 04:28N 39°27' W 000°19'0 0.0
2017-May-21 03:58N 39°27' W 000°19'0 0.0
2017-May-21 03:28N 39°27' W 000°19'0 0.0
2017-May-21 02:58N 39°27' W 000°19'0 0.0
2017-May-21 02:28N 39°27' W 000°19'0 0.0
2017-May-21 01:58N 39°27' W 000°19'0 0.0
2017-May-21 01:28N 39°27' W 000°19'0 0.0
2017-May-21 00:58N 39°27' W 000°19'0 0.0
2017-May-21 00:28N 39°27' W 000°19'0 0.0
2017-May-20 23:58N 39°27' W 000°19'0 0.0
2017-May-20 23:28N 39°27' W 000°19'0 0.0
2017-May-20 22:58N 39°27' W 000°19'0 0.0
2017-May-20 22:28N 39°27' W 000°19'0 0.0
2017-May-20 21:58N 39°27' W 000°19'0 0.0
2017-May-20 21:28N 39°27' W 000°19'0 0.0
2017-May-20 20:58N 39°27' W 000°19'0 0.0
2017-May-20 20:28N 39°27' W 000°19'0 0.0
2017-May-20 19:58N 39°27' W 000°19'0 0.0
2017-May-20 19:28N 39°27' W 000°19'0 0.0
2017-May-20 18:58N 39°27' W 000°19'0 0.0
2017-May-20 18:28N 39°27' W 000°19'0 0.0
2017-May-20 17:58N 39°27' W 000°19'0 0.1
2017-May-20 17:30N 39°27' W 000°19'3 5.8
2017-May-20 17:00N 39°26' W 000°15'1 1.2
2017-May-20 16:30N 39°26' W 000°15'0 0.3
2017-May-20 16:00N 39°26' W 000°15'4 7.1
2017-May-20 15:30N 39°28' W 000°11'713.5
2017-May-20 15:00N 39°32' W 000°04'3813.5
2017-May-20 12:11N 39°59' E 000°30'313.8
2017-May-20 12:00N 40°01' E 000°33'4813.9
2017-May-20 08:35N 40°42' E 001°06'25 6.7
2017-May-20 04:54N 41°06' E 001°13'0 0.0
2017-May-20 04:24N 41°06' E 001°13'0 0.0
2017-May-20 01:33N 41°06' E 001°13'0 0.1
2017-May-20 01:30N 41°06' E 001°13'0 0.0
2017-May-20 01:00N 41°06' E 001°13'0 0.0
2017-May-20 00:30N 41°06' E 001°13'0 0.0
2017-May-19 23:51N 41°06' E 001°13'0 0.3
2017-May-19 23:30N 41°06' E 001°13'2 4.0
2017-May-19 23:00N 41°04' E 001°12'  

Dump ship's entire track history